createdAt,value
2022-11-29T00:00:17.553Z,100864.16
2022-11-29T00:05:18.881Z,100863.31
2022-11-29T00:10:20.393Z,100868.97
2022-11-29T00:15:21.692Z,100861.53
2022-11-29T00:20:23.042Z,100860.53
2022-11-29T00:25:24.427Z,100862.00
2022-11-29T00:30:25.885Z,100856.03
2022-11-29T00:35:27.316Z,100856.84
2022-11-29T00:40:28.638Z,100857.31
2022-11-29T00:45:29.971Z,100854.41
2022-11-29T00:50:31.292Z,100858.50
2022-11-29T00:55:32.587Z,100850.69
2022-11-29T01:00:33.907Z,100857.81
2022-11-29T01:05:35.279Z,100857.97
2022-11-29T01:10:36.649Z,100863.66
2022-11-29T01:15:38.352Z,100864.28
2022-11-29T01:20:39.674Z,100868.00
2022-11-29T01:25:40.999Z,100867.75
2022-11-29T01:30:42.394Z,100866.88
2022-11-29T01:35:50.964Z,100874.81
2022-11-29T01:41:03.483Z,100876.44
2022-11-29T01:46:04.885Z,100871.56
2022-11-29T01:51:06.237Z,100885.16
2022-11-29T01:56:08.057Z,100883.91
2022-11-29T02:01:09.914Z,100888.91
2022-11-29T02:06:11.306Z,100884.72
2022-11-29T02:11:15.527Z,100893.97
2022-11-29T02:16:22.114Z,100891.19
2022-11-29T02:21:26.229Z,100891.00
2022-11-29T02:26:46.365Z,100895.22
2022-11-29T02:31:47.664Z,100896.66
2022-11-29T02:36:48.965Z,100903.63
2022-11-29T02:41:56.520Z,100902.66
2022-11-29T02:46:58.077Z,100901.53
2022-11-29T02:52:01.817Z,100907.50
2022-11-29T02:57:27.917Z,100896.81
2022-11-29T03:02:48.275Z,100905.91
2022-11-29T03:08:05.452Z,100899.25
2022-11-29T03:13:11.573Z,100895.22
2022-11-29T03:18:45.353Z,100895.53
2022-11-29T03:23:51.105Z,100904.72
2022-11-29T03:29:07.155Z,100915.41
2022-11-29T03:34:27.396Z,100923.00
2022-11-29T03:39:44.050Z,100931.66
2022-11-29T03:45:08.761Z,100933.56
2022-11-29T03:50:10.651Z,100936.53
2022-11-29T03:55:23.019Z,100937.53
2022-11-29T04:00:24.618Z,100934.47
2022-11-29T04:05:49.151Z,100938.84
2022-11-29T04:11:09.354Z,100939.50
2022-11-29T04:16:21.983Z,100940.69
2022-11-29T04:21:26.405Z,100955.06
2022-11-29T04:26:46.628Z,100965.94
2022-11-29T04:32:00.044Z,100964.84
2022-11-29T04:37:20.308Z,100963.34
2022-11-29T04:42:30.815Z,100970.00
2022-11-29T04:47:35.105Z,100979.25
2022-11-29T04:52:42.872Z,100987.38
2022-11-29T04:57:44.218Z,100985.59
2022-11-29T05:02:59.248Z,100994.69
2022-11-29T05:08:06.734Z,100994.81
2022-11-29T05:13:25.206Z,100996.47
2022-11-29T05:18:32.610Z,101007.94
2022-11-29T05:23:34.025Z,101011.81
2022-11-29T05:28:47.813Z,101020.91
2022-11-29T05:34:07.755Z,101017.69
2022-11-29T05:39:15.194Z,101016.63
2022-11-29T05:44:24.564Z,101023.50
2022-11-29T05:49:25.871Z,101012.72
2022-11-29T05:54:29.635Z,101017.59
2022-11-29T05:59:31.086Z,101023.09
2022-11-29T06:04:32.408Z,101025.81
2022-11-29T06:09:37.658Z,101036.06
2022-11-29T06:14:55.335Z,101039.16
2022-11-29T06:20:09.052Z,101044.25
2022-11-29T06:25:23.536Z,101043.94
2022-11-29T06:30:43.290Z,101051.44
2022-11-29T06:35:51.810Z,101066.22
2022-11-29T06:40:57.301Z,101057.97
2022-11-29T06:46:29.046Z,101065.56
2022-11-29T06:51:33.358Z,101077.41
2022-11-29T06:56:40.720Z,101080.19
2022-11-29T07:01:52.688Z,101079.56
2022-11-29T07:06:54.217Z,101086.38
2022-11-29T07:11:55.783Z,101091.44
2022-11-29T07:17:06.306Z,101091.75
2022-11-29T07:22:10.867Z,101099.03
2022-11-29T07:27:20.196Z,101107.34
2022-11-29T07:32:33.387Z,101108.19
2022-11-29T07:37:40.738Z,101112.25
2022-11-29T07:43:00.457Z,101115.66
2022-11-29T07:48:02.161Z,101125.91
2022-11-29T07:53:03.829Z,101122.66
2022-11-29T07:58:05.233Z,101134.84
2022-11-29T08:03:06.541Z,101139.22
2022-11-29T08:08:07.917Z,101136.00
2022-11-29T08:13:09.387Z,101136.00
2022-11-29T08:18:10.753Z,101144.78
2022-11-29T08:23:12.750Z,101155.53
2022-11-29T08:28:15.864Z,101151.13
2022-11-29T08:33:17.190Z,101155.88
2022-11-29T08:38:18.504Z,101161.69
2022-11-29T08:43:19.833Z,101174.41
2022-11-29T08:48:21.198Z,101167.88
2022-11-29T08:53:41.269Z,101172.59
2022-11-29T08:58:42.642Z,101186.13
2022-11-29T09:04:02.699Z,101188.72
2022-11-29T09:09:04.957Z,101181.41
2022-11-29T09:14:07.342Z,101190.34
2022-11-29T09:19:08.717Z,101205.94
2022-11-29T09:24:10.666Z,101205.94
2022-11-29T09:29:12.081Z,101212.78
2022-11-29T09:34:14.398Z,101225.13
2022-11-29T09:39:15.705Z,101226.25
2022-11-29T09:44:33.016Z,101231.16
2022-11-29T09:49:34.338Z,101238.66
2022-11-29T09:54:41.822Z,101243.34
2022-11-29T09:59:45.609Z,101238.28
2022-11-29T10:04:52.778Z,101252.28
2022-11-29T10:10:01.654Z,101256.19
2022-11-29T10:15:08.305Z,101257.31
2022-11-29T10:20:15.529Z,101257.31
2022-11-29T10:25:20.500Z,101254.03
2022-11-29T10:30:22.048Z,101259.91
2022-11-29T10:35:23.413Z,101256.00
2022-11-29T10:40:29.905Z,101246.25
2022-11-29T10:45:37.559Z,101253.41
2022-11-29T10:50:40.966Z,101255.53
2022-11-29T10:55:54.625Z,101267.75
2022-11-29T11:00:57.487Z,101264.50
2022-11-29T11:06:00.257Z,101263.50
2022-11-29T11:11:02.630Z,101263.34
2022-11-29T11:16:09.779Z,101263.66
2022-11-29T11:21:12.556Z,101261.22
2022-11-29T11:26:14.609Z,101265.44
2022-11-29T11:31:16.953Z,101260.88
2022-11-29T11:36:26.050Z,101262.22
2022-11-29T11:41:48.957Z,101267.41
2022-11-29T11:46:50.653Z,101272.28
2022-11-29T11:51:52.148Z,101268.72
2022-11-29T11:56:53.618Z,101266.06
2022-11-29T12:01:55.000Z,101274.19
2022-11-29T12:06:58.464Z,101271.69
2022-11-29T12:12:10.645Z,101276.41
2022-11-29T12:17:26.898Z,101274.13
2022-11-29T12:22:32.822Z,101279.38
2022-11-29T12:27:34.151Z,101285.25
2022-11-29T12:33:01.832Z,101295.69
2022-11-29T12:38:03.139Z,101294.31
2022-11-29T12:43:28.366Z,101296.94
2022-11-29T12:48:40.905Z,101299.00
2022-11-29T12:54:01.160Z,101310.50
2022-11-29T12:59:15.641Z,101308.06
2022-11-29T13:04:39.489Z,101319.44
2022-11-29T13:09:40.804Z,101326.50
2022-11-29T13:15:01.233Z,101319.56
2022-11-29T13:20:29.179Z,101326.06
2022-11-29T13:25:33.778Z,101325.47
2022-11-29T13:30:35.665Z,101331.72
2022-11-29T13:35:53.530Z,101337.66
2022-11-29T13:40:59.734Z,101331.56
2022-11-29T13:46:11.876Z,101339.97
2022-11-29T13:51:24.422Z,101336.56
2022-11-29T13:56:25.905Z,101341.59
2022-11-29T14:01:27.753Z,101343.41
2022-11-29T14:06:36.399Z,101351.72
2022-11-29T14:11:45.673Z,101359.53
2022-11-29T14:16:49.102Z,101358.38
2022-11-29T14:21:56.283Z,101363.63
2022-11-29T14:27:06.780Z,101366.88
2022-11-29T14:32:20.212Z,101363.13
2022-11-29T14:37:27.613Z,101365.88
2022-11-29T14:42:29.508Z,101361.50
2022-11-29T14:47:35.390Z,101368.34
2022-11-29T14:52:49.427Z,101362.78
2022-11-29T14:57:51.259Z,101369.28
2022-11-29T15:02:55.589Z,101378.25
2022-11-29T15:08:16.135Z,101376.28
2022-11-29T15:13:26.969Z,101381.34
2022-11-29T15:18:37.406Z,101381.81
2022-11-29T15:23:42.757Z,101391.09
2022-11-29T15:28:44.487Z,101381.66
2022-11-29T15:33:47.312Z,101390.44
2022-11-29T15:38:49.953Z,101391.06
2022-11-29T15:43:53.404Z,101392.06
2022-11-29T15:48:55.679Z,101391.06
2022-11-29T15:54:11.628Z,101398.38
2022-11-29T15:59:17.631Z,101398.88
2022-11-29T16:04:20.192Z,101416.47
2022-11-29T16:09:29.954Z,101413.69
2022-11-29T16:14:31.290Z,101408.31
2022-11-29T16:19:34.721Z,101416.44
2022-11-29T16:24:40.061Z,101411.03
2022-11-29T16:29:45.005Z,101417.84
2022-11-29T16:34:46.660Z,101413.41
2022-11-29T16:39:49.499Z,101427.69
2022-11-29T16:44:56.142Z,101435.69
2022-11-29T16:50:13.660Z,101444.81
2022-11-29T16:55:16.050Z,101441.00
2022-11-29T17:00:22.585Z,101440.88
2022-11-29T17:05:24.105Z,101448.38
2022-11-29T17:10:25.745Z,101446.72
2022-11-29T17:15:27.057Z,101436.31
2022-11-29T17:20:28.376Z,101441.09
2022-11-29T17:25:29.700Z,101448.88
2022-11-29T17:30:31.762Z,101456.06
2022-11-29T17:35:34.698Z,101452.31
2022-11-29T17:40:37.870Z,101463.94
2022-11-29T17:45:40.185Z,101462.69
2022-11-29T17:50:41.925Z,101465.47
2022-11-29T17:55:43.321Z,101458.03
2022-11-29T18:00:44.631Z,101461.56
2022-11-29T18:05:45.944Z,101471.25
2022-11-29T18:10:47.259Z,101465.38
2022-11-29T18:15:48.576Z,101471.09
2022-11-29T18:20:49.917Z,101469.34
2022-11-29T18:25:55.100Z,101471.50
2022-11-29T18:30:56.696Z,101482.69
2022-11-29T18:36:02.136Z,101480.31
2022-11-29T18:41:21.945Z,101492.44
2022-11-29T18:46:24.736Z,101489.81
2022-11-29T18:51:26.148Z,101487.53
2022-11-29T18:56:29.055Z,101486.19
2022-11-29T19:01:31.838Z,101500.94
2022-11-29T19:06:39.183Z,101503.09
2022-11-29T19:11:41.266Z,101508.38
2022-11-29T19:16:44.467Z,101510.88
2022-11-29T19:21:46.058Z,101507.03
2022-11-29T19:26:47.569Z,101514.38
2022-11-29T19:31:50.340Z,101525.91
2022-11-29T19:36:51.679Z,101526.84
2022-11-29T19:41:53.039Z,101528.94
2022-11-29T19:46:54.871Z,101530.94
2022-11-29T19:51:56.198Z,101529.34
2022-11-29T19:56:58.642Z,101538.13
2022-11-29T20:01:59.994Z,101539.41
2022-11-29T20:07:02.360Z,101533.91
2022-11-29T20:12:03.703Z,101532.94
2022-11-29T20:17:05.045Z,101536.06
2022-11-29T20:22:06.364Z,101545.41
2022-11-29T20:27:07.819Z,101537.16
2022-11-29T20:32:09.296Z,101544.34
2022-11-29T20:37:13.409Z,101551.81
2022-11-29T20:42:23.799Z,101549.50
2022-11-29T20:47:26.324Z,101545.56
2022-11-29T20:52:42.683Z,101545.41
2022-11-29T20:57:44.072Z,101539.69
2022-11-29T21:02:45.389Z,101544.34
2022-11-29T21:07:46.842Z,101549.75
2022-11-29T21:12:48.352Z,101549.91
2022-11-29T21:17:49.795Z,101549.50
2022-11-29T21:22:51.105Z,101550.75
2022-11-29T21:27:54.482Z,101547.59
2022-11-29T21:32:55.941Z,101552.84
2022-11-29T21:37:59.786Z,101553.13
2022-11-29T21:43:01.120Z,101553.38
2022-11-29T21:48:02.523Z,101547.91
2022-11-29T21:53:03.854Z,101550.63
2022-11-29T21:58:05.171Z,101549.00
2022-11-29T22:03:06.549Z,101561.16
2022-11-29T22:08:07.975Z,101569.09
2022-11-29T22:13:09.302Z,101562.13
2022-11-29T22:18:10.626Z,101565.38
2022-11-29T22:23:11.968Z,101562.25
2022-11-29T22:28:13.354Z,101557.47
2022-11-29T22:33:14.674Z,101561.28
2022-11-29T22:38:16.066Z,101568.38
2022-11-29T22:43:17.410Z,101560.06
2022-11-29T22:48:18.994Z,101561.00
2022-11-29T22:53:20.309Z,101558.81
2022-11-29T22:58:21.794Z,101561.16
2022-11-29T23:03:23.305Z,101564.00
2022-11-29T23:08:25.319Z,101570.56
2022-11-29T23:13:26.856Z,101579.97
2022-11-29T23:18:28.444Z,101589.13
2022-11-29T23:23:30.228Z,101593.06
2022-11-29T23:28:31.717Z,101592.09
2022-11-29T23:33:33.038Z,101583.66
2022-11-29T23:38:34.777Z,101595.09
2022-11-29T23:43:37.303Z,101595.91
2022-11-29T23:48:38.654Z,101587.53
2022-11-29T23:53:40.498Z,101595.28
2022-11-29T23:58:42.276Z,101600.03
